sensor_id;sensor_type;location;lat;lon;timestamp;pressure;altitude;pressure_sealevel;temperature;humidity
71638;BME280;59485;43.542;-5.676;2023-04-15T00:01:25;102076.19;;;14.12;100.00
71638;BME280;59485;43.542;-5.676;2023-04-15T00:03:52;102072.22;;;14.07;100.00
71638;BME280;59485;43.542;-5.676;2023-04-15T00:06:19;102075.03;;;13.99;100.00
71638;BME280;59485;43.542;-5.676;2023-04-15T00:08:45;102068.44;;;14.08;100.00
71638;BME280;59485;43.542;-5.676;2023-04-15T00:11:11;102058.50;;;13.99;100.00
71638;BME280;59485;43.542;-5.676;2023-04-15T00:13:37;102064.50;;;14.02;100.00
71638;BME280;59485;43.542;-5.676;2023-04-15T00:16:04;102063.78;;;14.08;100.00
71638;BME280;59485;43.542;-5.676;2023-04-15T00:18:31;102068.84;;;13.97;100.00
71638;BME280;59485;43.542;-5.676;2023-04-15T00:21:03;102085.38;;;13.97;100.00
71638;BME280;59485;43.542;-5.676;2023-04-15T00:23:29;102062.66;;;13.95;100.00
71638;BME280;59485;43.542;-5.676;2023-04-15T00:25:55;102073.69;;;13.95;100.00
71638;BME280;59485;43.542;-5.676;2023-04-15T00:28:20;102063.03;;;13.92;100.00
71638;BME280;59485;43.542;-5.676;2023-04-15T00:30:46;102056.56;;;13.76;100.00
71638;BME280;59485;43.542;-5.676;2023-04-15T00:33:12;102067.88;;;13.81;100.00
71638;BME280;59485;43.542;-5.676;2023-04-15T00:35:38;102093.34;;;13.92;100.00
71638;BME280;59485;43.542;-5.676;2023-04-15T00:38:05;102078.56;;;13.84;100.00
71638;BME280;59485;43.542;-5.676;2023-04-15T00:40:32;102076.00;;;13.83;100.00
71638;BME280;59485;43.542;-5.676;2023-04-15T00:42:58;102073.41;;;13.81;100.00
71638;BME280;59485;43.542;-5.676;2023-04-15T00:45:24;102085.59;;;13.87;100.00
71638;BME280;59485;43.542;-5.676;2023-04-15T00:47:50;102086.28;;;13.89;100.00
71638;BME280;59485;43.542;-5.676;2023-04-15T00:50:16;102074.56;;;13.87;100.00
71638;BME280;59485;43.542;-5.676;2023-04-15T00:52:41;102092.53;;;13.83;100.00
71638;BME280;59485;43.542;-5.676;2023-04-15T00:55:07;102096.09;;;13.92;100.00
71638;BME280;59485;43.542;-5.676;2023-04-15T00:57:34;102084.28;;;13.75;100.00
71638;BME280;59485;43.542;-5.676;2023-04-15T00:59:59;102075.34;;;13.73;100.00
71638;BME280;59485;43.542;-5.676;2023-04-15T01:02:25;102063.50;;;13.64;100.00
71638;BME280;59485;43.542;-5.676;2023-04-15T01:04:51;102081.16;;;13.78;100.00
71638;BME280;59485;43.542;-5.676;2023-04-15T01:07:17;102084.25;;;13.83;100.00
71638;BME280;59485;43.542;-5.676;2023-04-15T01:09:42;102074.81;;;13.77;100.00
71638;BME280;59485;43.542;-5.676;2023-04-15T01:12:11;102062.06;;;13.76;100.00
71638;BME280;59485;43.542;-5.676;2023-04-15T01:14:37;102067.38;;;13.86;100.00
71638;BME280;59485;43.542;-5.676;2023-04-15T01:17:02;102075.41;;;13.96;100.00
71638;BME280;59485;43.542;-5.676;2023-04-15T01:19:28;102053.13;;;13.74;100.00
71638;BME280;59485;43.542;-5.676;2023-04-15T01:21:54;102076.28;;;13.88;100.00
71638;BME280;59485;43.542;-5.676;2023-04-15T01:24:20;102083.56;;;13.81;100.00
71638;BME280;59485;43.542;-5.676;2023-04-15T01:26:47;102061.97;;;13.93;100.00
71638;BME280;59485;43.542;-5.676;2023-04-15T01:29:14;102070.13;;;13.78;100.00
71638;BME280;59485;43.542;-5.676;2023-04-15T01:31:46;102076.50;;;13.86;100.00
71638;BME280;59485;43.542;-5.676;2023-04-15T01:34:13;102038.06;;;13.54;100.00
71638;BME280;59485;43.542;-5.676;2023-04-15T01:36:39;102076.19;;;13.73;100.00
71638;BME280;59485;43.542;-5.676;2023-04-15T01:39:05;102068.66;;;13.67;100.00
71638;BME280;59485;43.542;-5.676;2023-04-15T01:41:30;102081.69;;;13.81;100.00
71638;BME280;59485;43.542;-5.676;2023-04-15T01:43:56;102074.81;;;13.77;100.00
71638;BME280;59485;43.542;-5.676;2023-04-15T01:46:22;102054.50;;;13.70;100.00
71638;BME280;59485;43.542;-5.676;2023-04-15T01:48:47;102076.97;;;13.90;100.00
71638;BME280;59485;43.542;-5.676;2023-04-15T01:51:13;102053.19;;;13.58;100.00
71638;BME280;59485;43.542;-5.676;2023-04-15T01:53:38;102064.44;;;13.79;100.00
71638;BME280;59485;43.542;-5.676;2023-04-15T01:56:04;102065.03;;;13.67;100.00
71638;BME280;59485;43.542;-5.676;2023-04-15T01:58:31;102076.66;;;13.85;100.00
71638;BME280;59485;43.542;-5.676;2023-04-15T02:00:57;102058.50;;;13.68;100.00
71638;BME280;59485;43.542;-5.676;2023-04-15T02:03:23;102080.03;;;14.03;100.00
71638;BME280;59485;43.542;-5.676;2023-04-15T02:05:49;102084.56;;;13.88;100.00
71638;BME280;59485;43.542;-5.676;2023-04-15T02:08:15;102085.53;;;13.64;100.00
71638;BME280;59485;43.542;-5.676;2023-04-15T02:10:41;102101.91;;;13.66;100.00
71638;BME280;59485;43.542;-5.676;2023-04-15T02:13:07;102103.22;;;13.78;100.00
71638;BME280;59485;43.542;-5.676;2023-04-15T02:15:33;102091.09;;;13.56;100.00
71638;BME280;59485;43.542;-5.676;2023-04-15T02:17:59;102097.38;;;13.73;100.00
71638;BME280;59485;43.542;-5.676;2023-04-15T02:20:25;102112.09;;;13.96;100.00
71638;BME280;59485;43.542;-5.676;2023-04-15T02:22:50;102112.72;;;13.75;100.00
71638;BME280;59485;43.542;-5.676;2023-04-15T02:25:16;102110.75;;;13.92;100.00
71638;BME280;59485;43.542;-5.676;2023-04-15T02:27:42;102119.28;;;13.66;100.00
71638;BME280;59485;43.542;-5.676;2023-04-15T02:30:09;102097.00;;;13.84;100.00
71638;BME280;59485;43.542;-5.676;2023-04-15T02:32:35;102111.03;;;13.66;100.00
71638;BME280;59485;43.542;-5.676;2023-04-15T02:35:06;102089.63;;;13.76;100.00
71638;BME280;59485;43.542;-5.676;2023-04-15T02:37:35;102129.38;;;13.82;100.00
71638;BME280;59485;43.542;-5.676;2023-04-15T02:40:08;102124.09;;;13.72;100.00
71638;BME280;59485;43.542;-5.676;2023-04-15T02:42:37;102090.75;;;13.59;100.00
71638;BME280;59485;43.542;-5.676;2023-04-15T02:45:03;102107.91;;;13.69;100.00
71638;BME280;59485;43.542;-5.676;2023-04-15T02:47:29;102112.72;;;13.75;100.00
71638;BME280;59485;43.542;-5.676;2023-04-15T02:49:54;102105.13;;;13.77;100.00
71638;BME280;59485;43.542;-5.676;2023-04-15T02:52:20;102115.66;;;13.74;100.00
71638;BME280;59485;43.542;-5.676;2023-04-15T02:54:45;102120.16;;;13.67;100.00
71638;BME280;59485;43.542;-5.676;2023-04-15T02:57:11;102124.19;;;13.95;100.00
71638;BME280;59485;43.542;-5.676;2023-04-15T02:59:37;102119.22;;;13.82;100.00
71638;BME280;59485;43.542;-5.676;2023-04-15T03:02:03;102126.00;;;13.64;100.00
71638;BME280;59485;43.542;-5.676;2023-04-15T03:04:32;102111.16;;;13.73;100.00
71638;BME280;59485;43.542;-5.676;2023-04-15T03:06:57;102118.09;;;13.61;100.00
71638;BME280;59485;43.542;-5.676;2023-04-15T03:09:23;102128.91;;;13.70;100.00
71638;BME280;59485;43.542;-5.676;2023-04-15T03:11:48;102123.81;;;13.59;100.00
71638;BME280;59485;43.542;-5.676;2023-04-15T03:14:15;102128.38;;;13.75;100.00
71638;BME280;59485;43.542;-5.676;2023-04-15T03:16:41;102102.25;;;13.63;100.00
71638;BME280;59485;43.542;-5.676;2023-04-15T03:19:06;102131.75;;;13.93;100.00
71638;BME280;59485;43.542;-5.676;2023-04-15T03:21:32;102097.84;;;13.45;100.00
71638;BME280;59485;43.542;-5.676;2023-04-15T03:23:57;102119.75;;;13.78;100.00
71638;BME280;59485;43.542;-5.676;2023-04-15T03:26:27;102117.00;;;13.78;100.00
71638;BME280;59485;43.542;-5.676;2023-04-15T03:28:53;102109.06;;;13.83;100.00
71638;BME280;59485;43.542;-5.676;2023-04-15T03:31:18;102119.91;;;13.84;100.00
71638;BME280;59485;43.542;-5.676;2023-04-15T03:33:44;102116.44;;;13.90;100.00
71638;BME280;59485;43.542;-5.676;2023-04-15T03:36:10;102095.34;;;13.67;100.00
71638;BME280;59485;43.542;-5.676;2023-04-15T03:38:35;102082.50;;;13.90;100.00
71638;BME280;59485;43.542;-5.676;2023-04-15T03:41:01;102112.25;;;14.03;100.00
71638;BME280;59485;43.542;-5.676;2023-04-15T03:43:26;102078.91;;;13.81;100.00
71638;BME280;59485;43.542;-5.676;2023-04-15T03:45:52;102091.00;;;14.11;100.00
71638;BME280;59485;43.542;-5.676;2023-04-15T03:48:17;102089.72;;;14.22;100.00
71638;BME280;59485;43.542;-5.676;2023-04-15T03:50:43;102100.19;;;14.04;100.00
71638;BME280;59485;43.542;-5.676;2023-04-15T03:53:08;102096.50;;;14.11;100.00
71638;BME280;59485;43.542;-5.676;2023-04-15T03:55:34;102086.78;;;13.93;100.00
71638;BME280;59485;43.542;-5.676;2023-04-15T03:57:59;102071.25;;;14.00;100.00
71638;BME280;59485;43.542;-5.676;2023-04-15T04:00:25;102090.09;;;14.19;100.00
71638;BME280;59485;43.542;-5.676;2023-04-15T04:02:50;102101.84;;;14.13;100.00
71638;BME280;59485;43.542;-5.676;2023-04-15T04:05:16;102086.88;;;14.07;100.00
71638;BME280;59485;43.542;-5.676;2023-04-15T04:07:41;102099.56;;;14.16;100.00
71638;BME280;59485;43.542;-5.676;2023-04-15T04:10:07;102102.03;;;14.34;100.00
71638;BME280;59485;43.542;-5.676;2023-04-15T04:12:33;102089.06;;;14.20;100.00
71638;BME280;59485;43.542;-5.676;2023-04-15T04:14:58;102099.09;;;14.13;100.00
71638;BME280;59485;43.542;-5.676;2023-04-15T04:17:24;102116.28;;;14.15;100.00
71638;BME280;59485;43.542;-5.676;2023-04-15T04:19:49;102108.75;;;14.09;100.00
71638;BME280;59485;43.542;-5.676;2023-04-15T04:22:15;102118.69;;;14.18;100.00
71638;BME280;59485;43.542;-5.676;2023-04-15T04:24:40;102120.81;;;14.08;100.00
71638;BME280;59485;43.542;-5.676;2023-04-15T04:27:06;102120.28;;;14.12;100.00
71638;BME280;59485;43.542;-5.676;2023-04-15T04:29:31;102121.84;;;14.07;100.00
71638;BME280;59485;43.542;-5.676;2023-04-15T04:31:57;102102.78;;;13.97;100.00
71638;BME280;59485;43.542;-5.676;2023-04-15T04:34:22;102112.09;;;13.96;100.00
71638;BME280;59485;43.542;-5.676;2023-04-15T04:36:48;102099.19;;;13.88;100.00
71638;BME280;59485;43.542;-5.676;2023-04-15T04:39:13;102112.78;;;13.98;100.00
71638;BME280;59485;43.542;-5.676;2023-04-15T04:41:39;102088.72;;;13.84;100.00
71638;BME280;59485;43.542;-5.676;2023-04-15T04:44:05;102110.41;;;13.95;100.00
71638;BME280;59485;43.542;-5.676;2023-04-15T04:46:31;102108.72;;;13.86;100.00
71638;BME280;59485;43.542;-5.676;2023-04-15T04:48:56;102106.13;;;13.84;100.00
71638;BME280;59485;43.542;-5.676;2023-04-15T04:51:22;102106.78;;;13.95;100.00
71638;BME280;59485;43.542;-5.676;2023-04-15T04:53:47;102126.97;;;14.18;100.00
71638;BME280;59485;43.542;-5.676;2023-04-15T04:56:13;102122.25;;;14.04;100.00
71638;BME280;59485;43.542;-5.676;2023-04-15T04:58:38;102138.06;;;14.10;100.00
71638;BME280;59485;43.542;-5.676;2023-04-15T05:01:04;102132.47;;;13.87;100.00
71638;BME280;59485;43.542;-5.676;2023-04-15T05:03:30;102131.91;;;14.00;100.00
71638;BME280;59485;43.542;-5.676;2023-04-15T05:05:55;102149.66;;;13.97;100.00
71638;BME280;59485;43.542;-5.676;2023-04-15T05:08:21;102142.06;;;13.99;100.00
71638;BME280;59485;43.542;-5.676;2023-04-15T05:10:47;102142.19;;;14.06;100.00
71638;BME280;59485;43.542;-5.676;2023-04-15T05:13:12;102135.91;;;13.89;100.00
71638;BME280;59485;43.542;-5.676;2023-04-15T05:15:38;102108.94;;;13.76;100.00
71638;BME280;59485;43.542;-5.676;2023-04-15T05:18:05;102155.38;;;13.96;100.00
71638;BME280;59485;43.542;-5.676;2023-04-15T05:20:31;102165.69;;;13.94;100.00
71638;BME280;59485;43.542;-5.676;2023-04-15T05:22:56;102140.44;;;13.74;100.00
71638;BME280;59485;43.542;-5.676;2023-04-15T05:28:02;102160.78;;;13.73;100.00
71638;BME280;59485;43.542;-5.676;2023-04-15T05:30:28;102174.88;;;13.86;100.00
71638;BME280;59485;43.542;-5.676;2023-04-15T05:32:53;102164.03;;;13.84;100.00
71638;BME280;59485;43.542;-5.676;2023-04-15T05:35:19;102143.38;;;13.72;100.00
71638;BME280;59485;43.542;-5.676;2023-04-15T05:37:44;102155.22;;;13.81;100.00
71638;BME280;59485;43.542;-5.676;2023-04-15T05:40:11;102154.50;;;13.95;100.00
71638;BME280;59485;43.542;-5.676;2023-04-15T05:42:36;102175.53;;;13.88;100.00
71638;BME280;59485;43.542;-5.676;2023-04-15T05:45:02;102160.25;;;13.77;100.00
71638;BME280;59485;43.542;-5.676;2023-04-15T05:47:30;102170.03;;;13.80;100.00
71638;BME280;59485;43.542;-5.676;2023-04-15T05:49:56;102170.16;;;14.03;100.00
71638;BME280;59485;43.542;-5.676;2023-04-15T05:52:23;102179.25;;;14.11;100.00
71638;BME280;59485;43.542;-5.676;2023-04-15T05:54:48;102190.75;;;14.15;100.00
71638;BME280;59485;43.542;-5.676;2023-04-15T05:57:14;102185.75;;;14.18;100.00
71638;BME280;59485;43.542;-5.676;2023-04-15T05:59:39;102189.88;;;14.22;100.00
71638;BME280;59485;43.542;-5.676;2023-04-15T06:02:06;102200.41;;;14.19;100.00
71638;BME280;59485;43.542;-5.676;2023-04-15T06:04:32;102179.28;;;14.34;100.00
71638;BME280;59485;43.542;-5.676;2023-04-15T06:06:57;102149.09;;;14.10;100.00
71638;BME280;59485;43.542;-5.676;2023-04-15T06:09:22;102170.03;;;14.27;100.00
71638;BME280;59485;43.542;-5.676;2023-04-15T06:11:48;102181.16;;;14.42;100.00
71638;BME280;59485;43.542;-5.676;2023-04-15T06:14:13;102167.22;;;14.35;100.00
71638;BME280;59485;43.542;-5.676;2023-04-15T06:16:39;102181.00;;;14.43;100.00
71638;BME280;59485;43.542;-5.676;2023-04-15T06:19:04;102202.25;;;14.66;100.00
71638;BME280;59485;43.542;-5.676;2023-04-15T06:21:30;102173.94;;;14.41;100.00
71638;BME280;59485;43.542;-5.676;2023-04-15T06:23:57;102175.53;;;14.27;100.00
71638;BME280;59485;43.542;-5.676;2023-04-15T06:26:23;102197.88;;;14.48;100.00
71638;BME280;59485;43.542;-5.676;2023-04-15T06:28:49;102204.09;;;14.42;100.00
71638;BME280;59485;43.542;-5.676;2023-04-15T06:31:14;102213.34;;;14.57;100.00
71638;BME280;59485;43.542;-5.676;2023-04-15T06:33:40;102202.03;;;14.44;100.00
71638;BME280;59485;43.542;-5.676;2023-04-15T06:36:05;102206.34;;;14.70;100.00
71638;BME280;59485;43.542;-5.676;2023-04-15T06:38:31;102211.63;;;14.56;100.00
71638;BME280;59485;43.542;-5.676;2023-04-15T06:40:56;102225.38;;;14.64;100.00
71638;BME280;59485;43.542;-5.676;2023-04-15T06:43:22;102223.59;;;14.72;100.00
71638;BME280;59485;43.542;-5.676;2023-04-15T06:45:48;102230.78;;;14.81;100.00
71638;BME280;59485;43.542;-5.676;2023-04-15T06:48:14;102234.81;;;14.70;100.00
71638;BME280;59485;43.542;-5.676;2023-04-15T06:50:39;102230.91;;;14.64;100.00
71638;BME280;59485;43.542;-5.676;2023-04-15T06:56:21;102224.28;;;14.35;100.00
71638;BME280;59485;43.542;-5.676;2023-04-15T06:58:47;102248.41;;;14.49;100.00
71638;BME280;59485;43.542;-5.676;2023-04-15T07:01:13;102255.56;;;14.66;100.00
71638;BME280;59485;43.542;-5.676;2023-04-15T07:03:38;102265.06;;;14.63;100.00
71638;BME280;59485;43.542;-5.676;2023-04-15T07:06:04;102275.22;;;14.63;100.00
71638;BME280;59485;43.542;-5.676;2023-04-15T07:08:32;102269.72;;;14.63;100.00
71638;BME280;59485;43.542;-5.676;2023-04-15T07:10:59;102256.78;;;14.63;100.00
71638;BME280;59485;43.542;-5.676;2023-04-15T07:13:24;102272.16;;;14.89;100.00
71638;BME280;59485;43.542;-5.676;2023-04-15T07:15:50;102275.69;;;14.75;100.00
71638;BME280;59485;43.542;-5.676;2023-04-15T07:18:16;102258.75;;;14.78;100.00
71638;BME280;59485;43.542;-5.676;2023-04-15T07:20:41;102274.00;;;14.96;100.00
71638;BME280;59485;43.542;-5.676;2023-04-15T07:23:07;102275.94;;;14.88;100.00
71638;BME280;59485;43.542;-5.676;2023-04-15T07:25:32;102273.00;;;14.89;100.00
71638;BME280;59485;43.542;-5.676;2023-04-15T07:27:58;102257.31;;;14.90;100.00
71638;BME280;59485;43.542;-5.676;2023-04-15T07:30:23;102275.91;;;15.19;100.00
71638;BME280;59485;43.542;-5.676;2023-04-15T07:32:49;102286.53;;;15.07;100.00
71638;BME280;59485;43.542;-5.676;2023-04-15T07:35:14;102287.13;;;14.94;100.00
71638;BME280;59485;43.542;-5.676;2023-04-15T07:37:40;102280.59;;;14.87;100.00
71638;BME280;59485;43.542;-5.676;2023-04-15T07:40:08;102287.38;;;14.85;100.00
71638;BME280;59485;43.542;-5.676;2023-04-15T07:42:34;102292.63;;;14.94;100.00
71638;BME280;59485;43.542;-5.676;2023-04-15T07:44:59;102294.50;;;15.02;100.00
71638;BME280;59485;43.542;-5.676;2023-04-15T07:47:25;102276.94;;;14.95;100.00
71638;BME280;59485;43.542;-5.676;2023-04-15T07:49:51;102303.38;;;15.20;100.00
71638;BME280;59485;43.542;-5.676;2023-04-15T07:52:17;102282.97;;;15.21;100.00
71638;BME280;59485;43.542;-5.676;2023-04-15T07:54:42;102288.47;;;15.21;100.00
71638;BME280;59485;43.542;-5.676;2023-04-15T07:57:08;102281.75;;;15.24;100.00
71638;BME280;59485;43.542;-5.676;2023-04-15T07:59:33;102298.06;;;15.33;100.00
71638;BME280;59485;43.542;-5.676;2023-04-15T08:01:59;102273.72;;;15.37;100.00
71638;BME280;59485;43.542;-5.676;2023-04-15T08:04:24;102289.59;;;15.35;100.00
71638;BME280;59485;43.542;-5.676;2023-04-15T08:06:50;102294.75;;;15.15;100.00
71638;BME280;59485;43.542;-5.676;2023-04-15T08:09:16;102289.09;;;15.31;100.00
71638;BME280;59485;43.542;-5.676;2023-04-15T08:11:42;102295.31;;;15.33;100.00
71638;BME280;59485;43.542;-5.676;2023-04-15T08:14:07;102296.91;;;15.51;100.00
71638;BME280;59485;43.542;-5.676;2023-04-15T08:16:36;102288.44;;;15.52;100.00
71638;BME280;59485;43.542;-5.676;2023-04-15T08:19:02;102289.00;;;15.48;100.00
71638;BME280;59485;43.542;-5.676;2023-04-15T08:21:27;102285.25;;;15.63;100.00
71638;BME280;59485;43.542;-5.676;2023-04-15T08:23:55;102299.09;;;15.63;100.00
71638;BME280;59485;43.542;-5.676;2023-04-15T08:26:21;102307.19;;;15.65;100.00
71638;BME280;59485;43.542;-5.676;2023-04-15T08:28:46;102309.47;;;15.61;100.00
71638;BME280;59485;43.542;-5.676;2023-04-15T08:31:16;102316.75;;;15.77;100.00
71638;BME280;59485;43.542;-5.676;2023-04-15T08:33:42;102316.53;;;16.01;100.00
71638;BME280;59485;43.542;-5.676;2023-04-15T08:36:08;102305.84;;;15.61;100.00
71638;BME280;59485;43.542;-5.676;2023-04-15T08:38:34;102301.88;;;15.78;100.00
71638;BME280;59485;43.542;-5.676;2023-04-15T08:41:05;102313.44;;;15.59;100.00
71638;BME280;59485;43.542;-5.676;2023-04-15T08:43:42;102327.50;;;15.72;100.00
71638;BME280;59485;43.542;-5.676;2023-04-15T08:46:09;102321.16;;;15.86;100.00
71638;BME280;59485;43.542;-5.676;2023-04-15T08:48:37;102315.16;;;15.83;100.00
71638;BME280;59485;43.542;-5.676;2023-04-15T08:51:03;102312.19;;;15.84;100.00
71638;BME280;59485;43.542;-5.676;2023-04-15T08:53:29;102322.09;;;15.93;100.00
71638;BME280;59485;43.542;-5.676;2023-04-15T08:55:57;102314.44;;;16.18;100.00
71638;BME280;59485;43.542;-5.676;2023-04-15T08:58:24;102325.78;;;16.08;100.00
71638;BME280;59485;43.542;-5.676;2023-04-15T09:00:50;102317.69;;;15.84;100.00
71638;BME280;59485;43.542;-5.676;2023-04-15T09:03:16;102334.50;;;15.83;100.00
71638;BME280;59485;43.542;-5.676;2023-04-15T09:05:41;102350.72;;;15.86;100.00
71638;BME280;59485;43.542;-5.676;2023-04-15T09:08:07;102331.75;;;15.83;100.00
71638;BME280;59485;43.542;-5.676;2023-04-15T09:10:33;102337.75;;;15.86;100.00
71638;BME280;59485;43.542;-5.676;2023-04-15T09:13:00;102333.41;;;16.06;100.00
71638;BME280;59485;43.542;-5.676;2023-04-15T09:15:26;102325.56;;;15.95;100.00
71638;BME280;59485;43.542;-5.676;2023-04-15T09:17:53;102342.97;;;16.19;100.00
71638;BME280;59485;43.542;-5.676;2023-04-15T09:20:19;102340.75;;;16.14;100.00
71638;BME280;59485;43.542;-5.676;2023-04-15T09:22:47;102351.31;;;15.96;100.00
71638;BME280;59485;43.542;-5.676;2023-04-15T09:27:50;102339.13;;;16.20;100.00
71638;BME280;59485;43.542;-5.676;2023-04-15T09:30:17;102339.81;;;16.22;100.00
71638;BME280;59485;43.542;-5.676;2023-04-15T09:35:16;102316.81;;;16.06;100.00
71638;BME280;59485;43.542;-5.676;2023-04-15T09:37:42;102347.66;;;16.18;100.00
71638;BME280;59485;43.542;-5.676;2023-04-15T09:40:07;102350.88;;;16.07;100.00
71638;BME280;59485;43.542;-5.676;2023-04-15T09:42:34;102332.91;;;16.03;100.00
71638;BME280;59485;43.542;-5.676;2023-04-15T09:45:10;102361.47;;;16.18;100.00
71638;BME280;59485;43.542;-5.676;2023-04-15T09:47:36;102359.63;;;16.10;100.00
71638;BME280;59485;43.542;-5.676;2023-04-15T09:50:02;102361.25;;;16.20;100.00
71638;BME280;59485;43.542;-5.676;2023-04-15T09:52:28;102367.28;;;16.08;100.00
71638;BME280;59485;43.542;-5.676;2023-04-15T09:54:56;102363.72;;;16.00;100.00
71638;BME280;59485;43.542;-5.676;2023-04-15T09:57:22;102362.59;;;16.09;100.00
71638;BME280;59485;43.542;-5.676;2023-04-15T09:59:49;102357.38;;;16.29;100.00
71638;BME280;59485;43.542;-5.676;2023-04-15T10:02:17;102378.44;;;16.00;100.00
71638;BME280;59485;43.542;-5.676;2023-04-15T10:04:44;102385.00;;;15.76;100.00
71638;BME280;59485;43.542;-5.676;2023-04-15T10:07:11;102377.44;;;15.48;100.00
71638;BME280;59485;43.542;-5.676;2023-04-15T10:09:37;102393.47;;;15.75;100.00
71638;BME280;59485;43.542;-5.676;2023-04-15T10:12:04;102376.88;;;15.75;100.00
71638;BME280;59485;43.542;-5.676;2023-04-15T10:14:32;102383.97;;;15.77;100.00
71638;BME280;59485;43.542;-5.676;2023-04-15T10:17:01;102387.53;;;15.63;100.00
71638;BME280;59485;43.542;-5.676;2023-04-15T10:19:35;102394.06;;;15.70;100.00
71638;BME280;59485;43.542;-5.676;2023-04-15T10:22:02;102392.38;;;15.84;100.00
71638;BME280;59485;43.542;-5.676;2023-04-15T10:24:32;102357.50;;;15.83;100.00
71638;BME280;59485;43.542;-5.676;2023-04-15T10:26:58;102389.88;;;16.12;100.00
71638;BME280;59485;43.542;-5.676;2023-04-15T10:29:24;102392.78;;;16.19;100.00
71638;BME280;59485;43.542;-5.676;2023-04-15T10:31:57;102388.31;;;16.32;100.00
71638;BME280;59485;43.542;-5.676;2023-04-15T10:34:24;102384.41;;;16.27;100.00
71638;BME280;59485;43.542;-5.676;2023-04-15T10:36:53;102384.41;;;16.27;100.00
71638;BME280;59485;43.542;-5.676;2023-04-15T10:44:32;102372.78;;;16.46;100.00
71638;BME280;59485;43.542;-5.676;2023-04-15T10:47:13;102362.34;;;16.48;100.00
71638;BME280;59485;43.542;-5.676;2023-04-15T10:49:50;102333.13;;;16.31;100.00
71638;BME280;59485;43.542;-5.676;2023-04-15T10:52:22;102371.91;;;16.45;100.00
71638;BME280;59485;43.542;-5.676;2023-04-15T10:54:47;102366.94;;;16.56;100.00
71638;BME280;59485;43.542;-5.676;2023-04-15T10:57:14;102379.34;;;16.60;100.00
71638;BME280;59485;43.542;-5.676;2023-04-15T11:00:13;102378.16;;;16.62;100.00
71638;BME280;59485;43.542;-5.676;2023-04-15T11:05:18;102366.88;;;16.78;100.00
71638;BME280;59485;43.542;-5.676;2023-04-15T11:07:54;102374.41;;;16.55;100.00
71638;BME280;59485;43.542;-5.676;2023-04-15T11:13:01;102371.63;;;16.55;100.00
71638;BME280;59485;43.542;-5.676;2023-04-15T11:17:57;102375.38;;;16.77;100.00
71638;BME280;59485;43.542;-5.676;2023-04-15T11:20:24;102359.59;;;16.77;100.00
71638;BME280;59485;43.542;-5.676;2023-04-15T11:22:51;102354.56;;;16.81;100.00
71638;BME280;59485;43.542;-5.676;2023-04-15T11:25:24;102367.31;;;16.97;100.00
71638;BME280;59485;43.542;-5.676;2023-04-15T11:27:51;102355.09;;;16.91;100.00
71638;BME280;59485;43.542;-5.676;2023-04-15T11:30:22;102366.28;;;16.83;100.00
71638;BME280;59485;43.542;-5.676;2023-04-15T11:32:53;102361.88;;;17.03;100.00
71638;BME280;59485;43.542;-5.676;2023-04-15T11:35:20;102363.50;;;16.83;100.00
71638;BME280;59485;43.542;-5.676;2023-04-15T11:37:49;102360.47;;;16.78;100.00
71638;BME280;59485;43.542;-5.676;2023-04-15T11:40:16;102360.19;;;16.87;100.00
71638;BME280;59485;43.542;-5.676;2023-04-15T11:42:45;102360.63;;;17.06;100.00
71638;BME280;59485;43.542;-5.676;2023-04-15T11:45:20;102357.97;;;16.83;100.00
71638;BME280;59485;43.542;-5.676;2023-04-15T11:47:46;102356.53;;;16.87;100.00
71638;BME280;59485;43.542;-5.676;2023-04-15T11:50:19;102376.69;;;16.66;100.00
71638;BME280;59485;43.542;-5.676;2023-04-15T11:52:59;102379.47;;;16.66;100.00
71638;BME280;59485;43.542;-5.676;2023-04-15T11:55:25;102380.22;;;16.60;100.00
71638;BME280;59485;43.542;-5.676;2023-04-15T11:58:13;102380.91;;;16.77;100.00
71638;BME280;59485;43.542;-5.676;2023-04-15T12:01:03;102389.94;;;16.56;100.00
71638;BME280;59485;43.542;-5.676;2023-04-15T12:03:29;102386.47;;;16.62;100.00
71638;BME280;59485;43.542;-5.676;2023-04-15T12:06:22;102383.78;;;16.69;100.00
71638;BME280;59485;43.542;-5.676;2023-04-15T12:13:54;102393.03;;;16.61;100.00
71638;BME280;59485;43.542;-5.676;2023-04-15T12:16:22;102392.84;;;16.63;100.00
71638;BME280;59485;43.542;-5.676;2023-04-15T12:18:52;102381.56;;;16.94;100.00
71638;BME280;59485;43.542;-5.676;2023-04-15T12:21:26;102384.31;;;16.94;100.00
71638;BME280;59485;43.542;-5.676;2023-04-15T12:24:00;102383.94;;;16.97;100.00
71638;BME280;59485;43.542;-5.676;2023-04-15T12:27:00;102371.72;;;17.06;100.00
71638;BME280;59485;43.542;-5.676;2023-04-15T12:29:27;102384.09;;;17.10;100.00
71638;BME280;59485;43.542;-5.676;2023-04-15T12:31:55;102383.34;;;17.16;100.00
71638;BME280;59485;43.542;-5.676;2023-04-15T12:34:31;102383.50;;;17.29;100.00
71638;BME280;59485;43.542;-5.676;2023-04-15T12:36:58;102389.19;;;17.06;100.00
71638;BME280;59485;43.542;-5.676;2023-04-15T12:39:28;102382.03;;;16.97;100.00
71638;BME280;59485;43.542;-5.676;2023-04-15T12:41:55;102394.44;;;17.01;100.00
71638;BME280;59485;43.542;-5.676;2023-04-15T12:44:22;102399.53;;;16.98;100.00
71638;BME280;59485;43.542;-5.676;2023-04-15T12:46:49;102401.34;;;16.91;100.00
71638;BME280;59485;43.542;-5.676;2023-04-15T12:49:15;102414.78;;;16.94;100.00
71638;BME280;59485;43.542;-5.676;2023-04-15T12:51:43;102404.31;;;16.89;100.00
71638;BME280;59485;43.542;-5.676;2023-04-15T12:54:09;102403.16;;;16.83;100.00
71638;BME280;59485;43.542;-5.676;2023-04-15T12:56:34;102412.88;;;16.65;100.00
71638;BME280;59485;43.542;-5.676;2023-04-15T12:59:00;102411.91;;;16.58;100.00